createdAt,value
2022-10-25T00:00:36.268Z,73.40
2022-10-25T00:03:05.209Z,73.40
2022-10-25T00:05:34.179Z,73.60
2022-10-25T00:08:03.638Z,74.00
2022-10-25T00:10:33.143Z,73.80
2022-10-25T00:13:02.305Z,73.60
2022-10-25T00:15:31.350Z,73.30
2022-10-25T00:18:02.141Z,73.00
2022-10-25T00:20:31.301Z,73.10
2022-10-25T00:23:00.384Z,72.90
2022-10-25T00:25:29.355Z,72.70
2022-10-25T00:27:58.903Z,72.70
2022-10-25T00:30:27.725Z,72.60
2022-10-25T00:32:56.874Z,72.40
2022-10-25T00:35:27.183Z,72.30
2022-10-25T00:37:56.216Z,72.30
2022-10-25T00:40:25.122Z,72.30
2022-10-25T00:42:54.010Z,72.30
2022-10-25T00:45:25.576Z,72.30
2022-10-25T00:48:00.687Z,72.50
2022-10-25T00:50:41.087Z,72.30
2022-10-25T00:53:14.747Z,72.30
2022-10-25T00:55:47.107Z,72.40
2022-10-25T00:58:18.980Z,72.30
2022-10-25T01:00:48.852Z,72.40
2022-10-25T01:03:20.752Z,72.60
2022-10-25T01:05:52.716Z,72.30
2022-10-25T01:08:23.025Z,72.40
2022-10-25T01:10:52.258Z,72.40
2022-10-25T01:13:21.395Z,72.40
2022-10-25T01:16:00.577Z,72.40
2022-10-25T01:18:43.294Z,72.40
2022-10-25T01:21:38.930Z,72.50
2022-10-25T01:24:44.190Z,72.40
2022-10-25T01:30:27.285Z,72.50
2022-10-25T01:33:15.560Z,72.50
2022-10-25T01:35:53.471Z,72.90
2022-10-25T01:38:32.060Z,72.80
2022-10-25T01:41:12.011Z,72.70
2022-10-25T01:43:48.297Z,72.70
2022-10-25T01:46:21.875Z,72.80
2022-10-25T01:48:59.997Z,72.70
2022-10-25T01:51:29.653Z,72.90
2022-10-25T01:53:58.536Z,72.80
2022-10-25T01:56:31.051Z,72.80
2022-10-25T01:59:19.961Z,72.70
2022-10-25T02:02:00.984Z,72.70
2022-10-25T02:04:44.814Z,72.60
2022-10-25T02:07:24.354Z,72.40
2022-10-25T02:10:02.508Z,72.50
2022-10-25T02:12:34.988Z,73.00
2022-10-25T02:15:10.798Z,72.80
2022-10-25T02:17:44.926Z,72.80
2022-10-25T02:20:18.797Z,72.60
2022-10-25T02:22:50.182Z,72.90
2022-10-25T02:25:19.647Z,72.80
2022-10-25T02:27:49.751Z,72.90
2022-10-25T02:30:19.227Z,73.20
2022-10-25T02:32:48.352Z,72.90
2022-10-25T02:35:21.047Z,72.80
2022-10-25T02:37:50.020Z,73.00
2022-10-25T02:40:19.585Z,72.80
2022-10-25T02:42:48.547Z,72.70
2022-10-25T02:45:17.283Z,72.80
2022-10-25T02:47:46.659Z,72.60
2022-10-25T02:50:15.870Z,72.50
2022-10-25T02:52:46.569Z,72.50
2022-10-25T02:55:15.866Z,72.60
2022-10-25T02:57:44.754Z,72.50
2022-10-25T03:00:15.066Z,72.50
2022-10-25T03:02:44.364Z,72.60
2022-10-25T03:05:13.242Z,72.60
2022-10-25T03:07:42.075Z,72.70
2022-10-25T03:10:12.354Z,72.60
2022-10-25T03:12:41.304Z,72.60
2022-10-25T03:15:11.528Z,72.50
2022-10-25T03:17:40.364Z,72.60
2022-10-25T03:20:10.548Z,72.60
2022-10-25T03:22:39.303Z,72.50
2022-10-25T03:27:44.492Z,72.50
2022-10-25T03:30:14.178Z,72.30
2022-10-25T03:32:43.130Z,72.40
2022-10-25T03:35:13.035Z,73.10
2022-10-25T03:37:41.910Z,72.30
2022-10-25T03:40:11.878Z,72.40
2022-10-25T03:42:40.896Z,72.30
2022-10-25T03:45:12.449Z,72.50
2022-10-25T03:47:41.698Z,72.50
2022-10-25T03:50:10.845Z,72.50
2022-10-25T03:52:40.040Z,72.60
2022-10-25T03:55:11.059Z,72.70
2022-10-25T03:57:40.003Z,72.80
2022-10-25T04:00:11.997Z,72.90
2022-10-25T04:02:41.334Z,72.90
2022-10-25T04:05:11.132Z,72.90
2022-10-25T04:07:40.090Z,72.90
2022-10-25T04:10:10.003Z,73.00
2022-10-25T04:12:38.903Z,72.90
2022-10-25T04:15:09.171Z,72.90
2022-10-25T04:17:40.166Z,72.90
2022-10-25T04:20:10.601Z,72.80
2022-10-25T04:22:39.737Z,72.80
2022-10-25T04:25:09.777Z,72.80
2022-10-25T04:27:38.784Z,72.80
2022-10-25T04:30:08.726Z,72.90
2022-10-25T04:32:37.680Z,73.20
2022-10-25T04:35:09.192Z,72.90
2022-10-25T04:37:38.870Z,73.20
2022-10-25T04:40:09.315Z,73.10
2022-10-25T04:42:39.698Z,73.40
2022-10-25T04:45:09.799Z,73.30
2022-10-25T04:47:38.767Z,73.20
2022-10-25T04:50:11.179Z,73.10
2022-10-25T04:52:40.104Z,73.20
2022-10-25T04:55:09.463Z,72.90
2022-10-25T04:57:39.218Z,72.80
2022-10-25T05:00:09.842Z,72.80
2022-10-25T05:02:39.053Z,72.90
2022-10-25T05:05:10.199Z,73.00
2022-10-25T05:07:39.198Z,73.00
2022-10-25T05:10:08.483Z,72.90
2022-10-25T05:12:38.452Z,73.00
2022-10-25T05:15:09.018Z,73.10
2022-10-25T05:17:38.722Z,73.10
2022-10-25T05:20:10.483Z,73.80
2022-10-25T05:22:39.518Z,72.80
2022-10-25T05:25:08.874Z,72.80
2022-10-25T05:27:38.988Z,72.80
2022-10-25T05:30:09.225Z,72.70
2022-10-25T05:32:38.539Z,72.80
2022-10-25T05:35:07.937Z,72.80
2022-10-25T05:37:38.197Z,72.70
2022-10-25T05:40:08.321Z,73.40
2022-10-25T05:42:37.259Z,73.30
2022-10-25T05:45:07.174Z,73.10
2022-10-25T05:47:36.482Z,73.00
2022-10-25T05:50:05.751Z,72.90
2022-10-25T05:52:34.675Z,73.20
2022-10-25T05:55:05.393Z,73.10
2022-10-25T05:57:34.634Z,73.00
2022-10-25T06:00:04.902Z,73.10
2022-10-25T06:02:35.489Z,72.90
2022-10-25T06:05:05.217Z,72.80
2022-10-25T06:07:34.170Z,73.00
2022-10-25T06:10:10.259Z,73.00
2022-10-25T06:12:39.649Z,73.00
2022-10-25T06:15:10.646Z,72.80
2022-10-25T06:17:39.714Z,72.80
2022-10-25T06:20:10.000Z,72.80
2022-10-25T06:22:39.433Z,72.80
2022-10-25T06:25:11.064Z,72.70
2022-10-25T06:27:40.048Z,72.70
2022-10-25T06:30:10.482Z,72.70
2022-10-25T06:32:40.167Z,72.50
2022-10-25T06:35:09.754Z,72.30
2022-10-25T06:37:39.602Z,72.10
2022-10-25T06:40:11.868Z,72.10
2022-10-25T06:42:41.006Z,72.10
2022-10-25T06:45:10.847Z,72.60
2022-10-25T06:47:40.050Z,72.70
2022-10-25T06:50:09.512Z,72.80
2022-10-25T06:52:39.542Z,72.80
2022-10-25T06:55:13.051Z,72.80
2022-10-25T06:57:42.071Z,72.80
2022-10-25T07:00:13.291Z,72.60
2022-10-25T07:02:42.235Z,72.60
2022-10-25T07:05:11.588Z,72.60
2022-10-25T07:07:40.819Z,72.60
2022-10-25T07:10:12.032Z,72.50
2022-10-25T07:12:41.569Z,72.50
2022-10-25T07:15:13.271Z,72.30
2022-10-25T07:17:42.753Z,72.10
2022-10-25T07:20:12.701Z,72.10
2022-10-25T07:22:41.883Z,72.10
2022-10-25T07:25:12.824Z,72.30
2022-10-25T07:27:41.956Z,72.20
2022-10-25T07:30:13.315Z,72.30
2022-10-25T07:32:42.682Z,72.30
2022-10-25T07:35:12.511Z,72.30
2022-10-25T07:37:41.598Z,71.70
2022-10-25T07:40:12.594Z,71.50
2022-10-25T07:42:41.664Z,71.80
2022-10-25T07:45:10.961Z,71.80
2022-10-25T07:47:40.237Z,71.80
2022-10-25T07:50:10.152Z,71.70
2022-10-25T07:52:39.577Z,72.10
2022-10-25T07:55:09.548Z,72.60
2022-10-25T07:57:41.542Z,72.40
2022-10-25T08:00:12.162Z,72.80
2022-10-25T08:02:41.403Z,72.70
2022-10-25T08:05:11.320Z,72.60
2022-10-25T08:07:40.233Z,72.50
2022-10-25T08:10:09.786Z,72.50
2022-10-25T08:12:41.746Z,72.40
2022-10-25T08:15:11.723Z,72.30
2022-10-25T08:17:40.758Z,72.10
2022-10-25T08:20:11.264Z,72.20
2022-10-25T08:22:40.575Z,71.90
2022-10-25T08:25:11.031Z,71.80
2022-10-25T08:27:42.435Z,71.90
2022-10-25T08:30:12.692Z,71.80
2022-10-25T08:32:41.710Z,72.10
2022-10-25T08:35:12.034Z,72.00
2022-10-25T08:37:41.121Z,72.00
2022-10-25T08:40:19.051Z,72.50
2022-10-25T08:43:02.404Z,72.00
2022-10-25T08:45:37.934Z,72.10
2022-10-25T08:48:12.829Z,71.90
2022-10-25T08:50:46.379Z,72.00
2022-10-25T08:53:22.574Z,72.00
2022-10-25T08:56:11.719Z,72.10
2022-10-25T08:58:48.885Z,72.30
2022-10-25T09:01:25.011Z,72.90
2022-10-25T09:03:54.274Z,73.00
2022-10-25T09:06:31.875Z,73.10
2022-10-25T09:09:13.101Z,73.90
2022-10-25T09:11:54.018Z,72.90
2022-10-25T09:14:40.009Z,72.80
2022-10-25T09:17:18.489Z,72.60
2022-10-25T09:20:03.438Z,72.30
2022-10-25T09:22:37.998Z,72.30
2022-10-25T09:25:15.330Z,72.20
2022-10-25T09:27:50.538Z,72.20
2022-10-25T09:30:21.912Z,72.00
2022-10-25T09:32:56.643Z,72.30
2022-10-25T09:35:29.551Z,72.60
2022-10-25T09:38:03.047Z,72.50
2022-10-25T09:40:47.546Z,72.20
2022-10-25T09:43:21.802Z,71.90
2022-10-25T09:45:55.337Z,71.70
2022-10-25T09:48:26.983Z,71.80
2022-10-25T09:51:03.921Z,71.80
2022-10-25T09:53:35.576Z,71.70
2022-10-25T09:56:06.365Z,71.90
2022-10-25T09:58:40.063Z,71.80
2022-10-25T10:01:16.184Z,71.90
2022-10-25T10:03:48.396Z,71.80
2022-10-25T10:06:25.338Z,71.60
2022-10-25T10:08:58.504Z,71.80
2022-10-25T10:11:29.234Z,72.00
2022-10-25T10:14:05.011Z,72.20
2022-10-25T10:16:44.463Z,72.10
2022-10-25T10:19:19.303Z,72.30
2022-10-25T10:21:51.755Z,72.80
2022-10-25T10:24:24.107Z,72.90
2022-10-25T10:26:57.066Z,72.90
2022-10-25T10:29:28.103Z,72.90
2022-10-25T10:32:01.576Z,72.80
2022-10-25T10:34:33.013Z,72.40
2022-10-25T10:37:04.001Z,72.30
2022-10-25T10:39:32.963Z,72.40
2022-10-25T10:42:15.004Z,72.50
2022-10-25T10:45:02.402Z,72.60
2022-10-25T10:47:35.407Z,72.50
2022-10-25T10:50:12.427Z,72.50
2022-10-25T10:52:44.313Z,72.70
2022-10-25T10:55:21.202Z,72.60
2022-10-25T10:57:53.038Z,72.10
2022-10-25T11:00:24.835Z,72.10
2022-10-25T11:05:28.372Z,73.50
2022-10-25T11:08:01.100Z,73.70
2022-10-25T11:10:32.379Z,72.60
2022-10-25T11:13:12.717Z,71.10
2022-10-25T11:16:17.750Z,69.70
2022-10-25T11:19:00.239Z,68.50
2022-10-25T11:21:45.477Z,67.20
2022-10-25T11:24:28.062Z,66.80
2022-10-25T11:27:02.846Z,66.10
2022-10-25T11:29:58.698Z,67.30
2022-10-25T11:32:51.453Z,64.70
2022-10-25T11:35:38.865Z,64.40
2022-10-25T11:38:16.768Z,63.50
2022-10-25T11:40:54.112Z,63.50
2022-10-25T11:43:36.381Z,63.40
2022-10-25T11:46:12.019Z,62.90
2022-10-25T11:48:55.258Z,62.00
2022-10-25T11:51:38.112Z,62.00
2022-10-25T11:54:27.450Z,61.50
2022-10-25T11:57:08.206Z,62.10
2022-10-25T11:59:50.239Z,60.20
2022-10-25T12:02:43.225Z,57.80
2022-10-25T12:05:25.218Z,56.60
2022-10-25T12:08:06.178Z,54.70
2022-10-25T12:10:38.657Z,54.00
2022-10-25T12:13:16.585Z,53.10
2022-10-25T12:15:47.770Z,52.80
2022-10-25T12:18:23.878Z,53.10
2022-10-25T12:20:57.222Z,53.40
2022-10-25T12:23:30.943Z,53.90
2022-10-25T12:26:05.849Z,53.90
2022-10-25T12:28:44.932Z,54.40
2022-10-25T12:31:18.746Z,54.90
2022-10-25T12:33:53.233Z,55.10
2022-10-25T12:36:29.051Z,55.30
2022-10-25T12:39:01.976Z,55.60
2022-10-25T12:41:36.049Z,55.30
2022-10-25T12:44:23.602Z,55.50
2022-10-25T12:47:12.958Z,55.80
2022-10-25T12:49:59.323Z,56.30
2022-10-25T12:52:33.604Z,56.70
2022-10-25T12:55:42.797Z,56.90
2022-10-25T12:58:28.566Z,57.30
2022-10-25T13:01:11.738Z,57.10
2022-10-25T13:04:02.252Z,57.40
2022-10-25T13:06:36.573Z,57.50
2022-10-25T13:09:09.524Z,57.20
2022-10-25T13:11:43.900Z,57.30
2022-10-25T13:14:24.501Z,57.30
2022-10-25T13:16:53.748Z,57.50
2022-10-25T13:19:53.625Z,57.50
2022-10-25T13:22:39.886Z,57.60
2022-10-25T13:25:39.326Z,57.60
2022-10-25T13:28:35.300Z,57.60
2022-10-25T13:31:31.590Z,57.50
2022-10-25T13:34:23.545Z,57.50
2022-10-25T13:36:54.147Z,58.00
2022-10-25T13:39:26.587Z,57.90
2022-10-25T13:42:02.170Z,57.90
2022-10-25T13:44:32.845Z,57.70
2022-10-25T13:47:01.854Z,57.90
2022-10-25T13:49:34.678Z,58.00
2022-10-25T13:52:06.350Z,58.00
2022-10-25T13:54:48.867Z,57.90
2022-10-25T13:57:47.375Z,58.10
2022-10-25T14:00:34.556Z,57.90
2022-10-25T14:03:19.686Z,57.30
2022-10-25T14:06:18.385Z,57.60
2022-10-25T14:08:54.296Z,57.50
2022-10-25T14:11:34.506Z,57.50
2022-10-25T14:14:13.884Z,57.50
2022-10-25T14:16:55.459Z,57.40
2022-10-25T14:19:34.049Z,57.40
2022-10-25T14:22:15.379Z,57.40
2022-10-25T14:24:47.777Z,57.50
2022-10-25T14:27:32.223Z,57.40
2022-10-25T14:30:23.410Z,57.40
2022-10-25T14:32:56.532Z,57.50
2022-10-25T14:35:28.630Z,57.10
2022-10-25T14:37:59.040Z,57.40
2022-10-25T14:40:30.967Z,57.70
2022-10-25T14:43:22.271Z,57.40
2022-10-25T14:46:13.204Z,57.30
2022-10-25T14:48:46.855Z,57.60
2022-10-25T14:51:21.806Z,57.80
2022-10-25T14:53:57.271Z,57.50
2022-10-25T14:56:31.238Z,57.40
2022-10-25T14:59:01.837Z,57.70
2022-10-25T15:01:30.957Z,57.60
2022-10-25T15:04:02.067Z,57.80
2022-10-25T15:06:32.778Z,57.60
2022-10-25T15:09:40.768Z,57.90
2022-10-25T15:12:07.136Z,58.20
2022-10-25T15:14:37.019Z,57.80
2022-10-25T15:17:14.939Z,57.90
2022-10-25T15:20:03.069Z,57.90
2022-10-25T15:22:34.083Z,58.00
2022-10-25T15:25:03.146Z,58.00
2022-10-25T15:27:35.270Z,58.20
2022-10-25T15:30:05.853Z,58.80
2022-10-25T15:32:36.810Z,58.40
2022-10-25T15:35:24.855Z,58.50
2022-10-25T15:37:53.898Z,58.70
2022-10-25T15:40:23.572Z,58.60
2022-10-25T15:42:52.805Z,58.60
2022-10-25T15:45:23.013Z,58.60
2022-10-25T15:47:55.125Z,58.60
2022-10-25T15:50:25.880Z,58.60
2022-10-25T15:52:56.051Z,58.80
2022-10-25T15:55:27.959Z,59.00
2022-10-25T15:57:57.171Z,59.00
2022-10-25T16:00:28.161Z,59.00
2022-10-25T16:03:01.858Z,59.10
2022-10-25T16:05:34.981Z,59.10
2022-10-25T16:08:03.987Z,59.20
2022-10-25T16:10:33.766Z,59.30
2022-10-25T16:13:05.450Z,59.60
2022-10-25T16:15:34.988Z,59.60
2022-10-25T16:18:04.211Z,59.70
2022-10-25T16:20:36.159Z,59.70
2022-10-25T16:23:05.316Z,59.80
2022-10-25T16:25:35.080Z,59.90
2022-10-25T16:28:04.177Z,60.00
2022-10-25T16:30:36.558Z,60.30
2022-10-25T16:33:09.121Z,60.70
2022-10-25T16:35:41.439Z,60.70
2022-10-25T16:40:39.483Z,61.00
2022-10-25T16:43:10.576Z,61.10
2022-10-25T16:45:39.502Z,61.20
2022-10-25T16:48:08.883Z,61.30
2022-10-25T16:50:39.257Z,61.50
2022-10-25T16:53:09.200Z,61.50
2022-10-25T16:55:38.261Z,61.60
2022-10-25T16:58:07.284Z,61.80
2022-10-25T17:00:36.751Z,62.00
2022-10-25T17:03:05.974Z,62.10
2022-10-25T17:05:34.994Z,62.30
2022-10-25T17:08:05.455Z,62.50
2022-10-25T17:10:34.451Z,62.60
2022-10-25T17:13:05.346Z,62.80
2022-10-25T17:15:34.438Z,62.90
2022-10-25T17:18:03.591Z,63.00
2022-10-25T17:20:36.259Z,63.10
2022-10-25T17:23:06.712Z,63.20
2022-10-25T17:25:35.841Z,63.20
2022-10-25T17:28:05.703Z,63.40
2022-10-25T17:30:34.623Z,63.50
2022-10-25T17:33:04.067Z,63.60
2022-10-25T17:35:34.171Z,63.80
2022-10-25T17:38:03.419Z,63.90
2022-10-25T17:40:34.033Z,64.10
2022-10-25T17:43:02.891Z,64.20
2022-10-25T17:45:33.103Z,64.30
2022-10-25T17:48:02.666Z,64.50
2022-10-25T17:50:36.052Z,64.70
2022-10-25T17:53:05.166Z,65.00
2022-10-25T17:55:39.065Z,64.80
2022-10-25T17:58:09.928Z,65.00
2022-10-25T18:00:39.085Z,65.00
2022-10-25T18:03:08.311Z,65.20
2022-10-25T18:05:41.166Z,65.40
2022-10-25T18:08:10.150Z,65.40
2022-10-25T18:10:40.535Z,65.40
2022-10-25T18:13:09.428Z,65.50
2022-10-25T18:15:39.183Z,65.40
2022-10-25T18:18:08.254Z,65.50
2022-10-25T18:20:40.717Z,65.50
2022-10-25T18:23:09.954Z,65.40
2022-10-25T18:25:40.683Z,65.40
2022-10-25T18:28:09.733Z,65.50
2022-10-25T18:30:38.820Z,65.60
2022-10-25T18:33:13.384Z,65.70
2022-10-25T18:35:42.435Z,65.90
2022-10-25T18:38:15.720Z,65.90
2022-10-25T18:40:48.089Z,66.00
2022-10-25T18:43:17.527Z,66.20
2022-10-25T18:45:46.564Z,66.30
2022-10-25T18:48:15.468Z,66.30
2022-10-25T18:50:44.655Z,66.30
2022-10-25T18:53:13.776Z,66.40
2022-10-25T18:55:47.403Z,66.40
2022-10-25T18:58:16.512Z,66.40
2022-10-25T19:00:45.867Z,66.40
2022-10-25T19:03:16.254Z,66.50
2022-10-25T19:05:45.443Z,66.60
2022-10-25T19:08:14.370Z,66.60
2022-10-25T19:10:43.483Z,66.50
2022-10-25T19:13:19.234Z,66.70
2022-10-25T19:15:50.273Z,66.80
2022-10-25T19:18:19.488Z,67.00
2022-10-25T19:20:48.673Z,66.90
2022-10-25T19:23:17.987Z,67.00
2022-10-25T19:25:47.335Z,67.00
2022-10-25T19:28:18.685Z,67.10
2022-10-25T19:30:47.636Z,67.00
2022-10-25T19:33:16.722Z,67.10
2022-10-25T19:35:46.067Z,67.00
2022-10-25T19:38:15.330Z,67.00
2022-10-25T19:40:46.063Z,67.00
2022-10-25T19:43:15.976Z,67.10
2022-10-25T19:45:46.497Z,67.20
2022-10-25T19:48:16.024Z,67.30
2022-10-25T19:50:45.004Z,67.10
2022-10-25T19:53:13.966Z,67.20
2022-10-25T19:55:42.984Z,67.10
2022-10-25T19:58:12.123Z,67.10
2022-10-25T20:00:42.318Z,67.10
2022-10-25T20:03:12.937Z,67.20
2022-10-25T20:05:42.004Z,67.30
2022-10-25T20:08:11.102Z,67.30
2022-10-25T20:10:40.343Z,67.20
2022-10-25T20:13:09.402Z,67.20
2022-10-25T20:15:38.633Z,67.20
2022-10-25T20:18:07.899Z,67.30
2022-10-25T20:20:38.883Z,67.30
2022-10-25T20:23:08.097Z,67.60
2022-10-25T20:25:36.998Z,67.60
2022-10-25T20:28:06.342Z,67.60
2022-10-25T20:30:37.489Z,67.60
2022-10-25T20:33:07.533Z,67.60
2022-10-25T20:35:38.904Z,67.60
2022-10-25T20:38:11.828Z,67.70
2022-10-25T20:40:41.644Z,67.80
2022-10-25T20:43:10.732Z,67.70
2022-10-25T20:45:41.472Z,68.50
2022-10-25T20:48:11.250Z,67.70
2022-10-25T20:50:46.029Z,67.70
2022-10-25T20:53:15.076Z,67.70
2022-10-25T20:55:47.789Z,67.80
2022-10-25T20:58:17.779Z,68.00
2022-10-25T21:00:47.749Z,68.10
2022-10-25T21:03:17.219Z,68.20
2022-10-25T21:05:47.776Z,68.30
2022-10-25T21:08:16.949Z,68.30
2022-10-25T21:10:52.626Z,68.30
2022-10-25T21:13:21.799Z,68.30
2022-10-25T21:15:51.164Z,68.40
2022-10-25T21:18:20.478Z,68.20
2022-10-25T21:20:50.864Z,68.30
2022-10-25T21:23:36.299Z,68.40
2022-10-25T21:26:09.518Z,68.40
2022-10-25T21:28:39.854Z,68.40
2022-10-25T21:31:11.240Z,68.40
2022-10-25T21:33:41.766Z,68.40
2022-10-25T21:36:13.354Z,68.40
2022-10-25T21:38:42.584Z,68.40
2022-10-25T21:41:12.969Z,68.40
2022-10-25T21:43:44.522Z,68.40
2022-10-25T21:46:14.961Z,68.40
2022-10-25T21:48:45.878Z,68.50
2022-10-25T21:51:16.771Z,68.40
2022-10-25T21:53:45.975Z,68.40
2022-10-25T21:56:16.200Z,68.50
2022-10-25T21:58:46.909Z,68.50
2022-10-25T22:01:17.730Z,68.50
2022-10-25T22:03:46.863Z,68.50
2022-10-25T22:06:19.388Z,68.60
2022-10-25T22:08:49.021Z,68.70
2022-10-25T22:11:20.606Z,68.80
2022-10-25T22:13:54.192Z,68.80
2022-10-25T22:16:23.198Z,68.80
2022-10-25T22:18:54.747Z,68.90
2022-10-25T22:21:26.004Z,69.10
2022-10-25T22:23:55.250Z,69.00
2022-10-25T22:26:24.465Z,69.00
2022-10-25T22:28:54.196Z,68.90
2022-10-25T22:31:23.402Z,68.90
2022-10-25T22:33:55.063Z,69.00
2022-10-25T22:36:27.238Z,69.00
2022-10-25T22:38:56.671Z,69.10
2022-10-25T22:41:28.049Z,69.00
2022-10-25T22:43:58.079Z,68.90
2022-10-25T22:46:29.068Z,69.00
2022-10-25T22:48:59.631Z,69.00
2022-10-25T22:51:29.795Z,69.10
2022-10-25T22:53:58.518Z,69.00
2022-10-25T22:56:30.076Z,69.10
2022-10-25T22:59:00.691Z,69.20
2022-10-25T23:01:30.975Z,69.20
2022-10-25T23:04:00.884Z,69.30
2022-10-25T23:06:33.035Z,69.30
2022-10-25T23:09:03.593Z,69.40
2022-10-25T23:11:34.832Z,69.40
2022-10-25T23:14:05.073Z,69.30
2022-10-25T23:16:33.827Z,69.30
2022-10-25T23:19:03.108Z,69.40
2022-10-25T23:21:33.313Z,69.40
2022-10-25T23:24:02.053Z,70.30
2022-10-25T23:26:32.586Z,69.40
2022-10-25T23:29:02.119Z,69.50
2022-10-25T23:31:31.639Z,69.60
2022-10-25T23:34:01.961Z,69.60
2022-10-25T23:36:37.136Z,69.70
2022-10-25T23:39:07.705Z,69.70
2022-10-25T23:41:36.857Z,69.70
2022-10-25T23:44:06.018Z,69.70
2022-10-25T23:46:34.765Z,69.70
2022-10-25T23:49:03.464Z,69.70
2022-10-25T23:51:33.509Z,69.70
2022-10-25T23:54:02.090Z,69.70
2022-10-25T23:56:30.727Z,69.80
2022-10-25T23:58:59.411Z,69.70
